sensor_id;sensor_type;location;lat;lon;timestamp;temperature;humidity
25436;DHT22;13363;52.772;-3.890;2023-02-15T00:02:25;7.80;99.90
25436;DHT22;13363;52.772;-3.890;2023-02-15T00:04:50;7.70;99.90
25436;DHT22;13363;52.772;-3.890;2023-02-15T00:07:18;7.70;99.90
25436;DHT22;13363;52.772;-3.890;2023-02-15T00:09:46;7.70;99.90
25436;DHT22;13363;52.772;-3.890;2023-02-15T00:12:12;7.70;99.90
25436;DHT22;13363;52.772;-3.890;2023-02-15T00:14:38;7.70;99.90
25436;DHT22;13363;52.772;-3.890;2023-02-15T00:17:03;7.70;99.90
25436;DHT22;13363;52.772;-3.890;2023-02-15T00:19:29;7.70;99.90
25436;DHT22;13363;52.772;-3.890;2023-02-15T00:21:55;7.90;99.90
25436;DHT22;13363;52.772;-3.890;2023-02-15T00:24:21;8.00;99.90
25436;DHT22;13363;52.772;-3.890;2023-02-15T00:26:47;7.80;99.90
25436;DHT22;13363;52.772;-3.890;2023-02-15T00:29:15;7.70;99.90
25436;DHT22;13363;52.772;-3.890;2023-02-15T00:31:42;7.50;99.90
25436;DHT22;13363;52.772;-3.890;2023-02-15T00:34:13;7.40;99.90
25436;DHT22;13363;52.772;-3.890;2023-02-15T00:36:39;7.60;99.90
25436;DHT22;13363;52.772;-3.890;2023-02-15T00:39:05;7.60;99.90
25436;DHT22;13363;52.772;-3.890;2023-02-15T00:41:32;7.70;99.90
25436;DHT22;13363;52.772;-3.890;2023-02-15T00:43:58;7.70;99.90
25436;DHT22;13363;52.772;-3.890;2023-02-15T00:46:24;7.60;99.90
25436;DHT22;13363;52.772;-3.890;2023-02-15T00:48:50;7.50;99.90
25436;DHT22;13363;52.772;-3.890;2023-02-15T00:51:16;7.50;99.90
25436;DHT22;13363;52.772;-3.890;2023-02-15T00:53:43;7.40;99.90
25436;DHT22;13363;52.772;-3.890;2023-02-15T00:56:10;7.40;99.90
25436;DHT22;13363;52.772;-3.890;2023-02-15T00:58:36;7.50;99.90
25436;DHT22;13363;52.772;-3.890;2023-02-15T01:01:07;7.50;99.90
25436;DHT22;13363;52.772;-3.890;2023-02-15T01:03:34;7.50;99.90
25436;DHT22;13363;52.772;-3.890;2023-02-15T01:06:00;7.60;99.90
25436;DHT22;13363;52.772;-3.890;2023-02-15T01:08:26;7.40;99.90
25436;DHT22;13363;52.772;-3.890;2023-02-15T01:10:53;7.30;99.90
25436;DHT22;13363;52.772;-3.890;2023-02-15T01:13:19;7.40;99.90
25436;DHT22;13363;52.772;-3.890;2023-02-15T01:15:45;7.20;99.90
25436;DHT22;13363;52.772;-3.890;2023-02-15T01:18:11;7.10;99.90
25436;DHT22;13363;52.772;-3.890;2023-02-15T01:20:39;7.10;99.90
25436;DHT22;13363;52.772;-3.890;2023-02-15T01:23:07;7.10;99.90
25436;DHT22;13363;52.772;-3.890;2023-02-15T01:25:34;7.20;99.90
25436;DHT22;13363;52.772;-3.890;2023-02-15T01:28:01;7.20;99.90
25436;DHT22;13363;52.772;-3.890;2023-02-15T01:30:27;7.00;99.90
25436;DHT22;13363;52.772;-3.890;2023-02-15T01:32:53;6.90;99.90
25436;DHT22;13363;52.772;-3.890;2023-02-15T01:35:19;7.10;99.90
25436;DHT22;13363;52.772;-3.890;2023-02-15T01:37:45;7.20;99.90
25436;DHT22;13363;52.772;-3.890;2023-02-15T01:40:15;7.30;99.90
25436;DHT22;13363;52.772;-3.890;2023-02-15T01:42:42;7.30;99.90
25436;DHT22;13363;52.772;-3.890;2023-02-15T01:45:22;7.40;99.90
25436;DHT22;13363;52.772;-3.890;2023-02-15T01:47:58;7.40;99.90
25436;DHT22;13363;52.772;-3.890;2023-02-15T01:50:33;7.30;99.90
25436;DHT22;13363;52.772;-3.890;2023-02-15T01:53:23;7.10;99.90
25436;DHT22;13363;52.772;-3.890;2023-02-15T01:55:54;7.20;99.90
25436;DHT22;13363;52.772;-3.890;2023-02-15T01:58:22;7.10;99.90
25436;DHT22;13363;52.772;-3.890;2023-02-15T02:00:49;7.10;99.90
25436;DHT22;13363;52.772;-3.890;2023-02-15T02:03:15;7.10;99.90
25436;DHT22;13363;52.772;-3.890;2023-02-15T02:05:42;7.10;99.90
25436;DHT22;13363;52.772;-3.890;2023-02-15T02:08:08;7.10;99.90
25436;DHT22;13363;52.772;-3.890;2023-02-15T02:10:37;7.20;99.90
25436;DHT22;13363;52.772;-3.890;2023-02-15T02:13:05;7.20;99.90
25436;DHT22;13363;52.772;-3.890;2023-02-15T02:15:47;7.20;99.90
25436;DHT22;13363;52.772;-3.890;2023-02-15T02:21:29;7.00;99.90
25436;DHT22;13363;52.772;-3.890;2023-02-15T02:43:20;7.50;99.90
25436;DHT22;13363;52.772;-3.890;2023-02-15T02:48:34;8.00;99.90
25436;DHT22;13363;52.772;-3.890;2023-02-15T02:51:00;8.00;99.90
25436;DHT22;13363;52.772;-3.890;2023-02-15T02:53:27;7.80;99.90
25436;DHT22;13363;52.772;-3.890;2023-02-15T02:56:56;7.50;99.90
25436;DHT22;13363;52.772;-3.890;2023-02-15T02:59:08;7.30;99.90
25436;DHT22;13363;52.772;-3.890;2023-02-15T03:01:41;7.10;99.90
25436;DHT22;13363;52.772;-3.890;2023-02-15T03:04:13;7.00;99.90
25436;DHT22;13363;52.772;-3.890;2023-02-15T03:09:28;6.60;99.90
25436;DHT22;13363;52.772;-3.890;2023-02-15T03:12:16;6.60;99.90
25436;DHT22;13363;52.772;-3.890;2023-02-15T03:14:44;6.50;99.90
25436;DHT22;13363;52.772;-3.890;2023-02-15T03:17:13;6.40;99.90
25436;DHT22;13363;52.772;-3.890;2023-02-15T03:19:43;6.30;99.90
25436;DHT22;13363;52.772;-3.890;2023-02-15T03:22:38;6.50;99.90
25436;DHT22;13363;52.772;-3.890;2023-02-15T03:25:22;6.60;99.90
25436;DHT22;13363;52.772;-3.890;2023-02-15T03:27:54;6.80;99.90
25436;DHT22;13363;52.772;-3.890;2023-02-15T03:30:22;6.60;99.90
25436;DHT22;13363;52.772;-3.890;2023-02-15T03:32:49;6.70;99.90
25436;DHT22;13363;52.772;-3.890;2023-02-15T03:35:16;6.50;99.90
25436;DHT22;13363;52.772;-3.890;2023-02-15T03:37:53;6.50;99.90
25436;DHT22;13363;52.772;-3.890;2023-02-15T03:40:28;6.40;99.90
25436;DHT22;13363;52.772;-3.890;2023-02-15T03:46:24;6.40;99.90
25436;DHT22;13363;52.772;-3.890;2023-02-15T03:48:56;6.20;99.90
25436;DHT22;13363;52.772;-3.890;2023-02-15T03:51:29;6.10;99.90
25436;DHT22;13363;52.772;-3.890;2023-02-15T03:54:09;6.00;99.90
25436;DHT22;13363;52.772;-3.890;2023-02-15T03:56:37;5.90;99.90
25436;DHT22;13363;52.772;-3.890;2023-02-15T03:59:04;6.20;99.90
25436;DHT22;13363;52.772;-3.890;2023-02-15T04:02:13;6.20;99.90
25436;DHT22;13363;52.772;-3.890;2023-02-15T04:04:46;6.10;99.90
25436;DHT22;13363;52.772;-3.890;2023-02-15T04:07:13;6.00;99.90
25436;DHT22;13363;52.772;-3.890;2023-02-15T04:09:39;6.00;99.90
25436;DHT22;13363;52.772;-3.890;2023-02-15T04:12:23;6.10;99.90
25436;DHT22;13363;52.772;-3.890;2023-02-15T04:14:49;6.10;99.90
25436;DHT22;13363;52.772;-3.890;2023-02-15T04:17:35;6.10;99.90
25436;DHT22;13363;52.772;-3.890;2023-02-15T04:20:01;6.00;99.90
25436;DHT22;13363;52.772;-3.890;2023-02-15T04:22:45;5.90;99.90
25436;DHT22;13363;52.772;-3.890;2023-02-15T04:25:29;6.20;99.90
25436;DHT22;13363;52.772;-3.890;2023-02-15T04:27:55;6.20;99.90
25436;DHT22;13363;52.772;-3.890;2023-02-15T04:30:23;6.00;99.90
25436;DHT22;13363;52.772;-3.890;2023-02-15T04:32:50;6.10;99.90
25436;DHT22;13363;52.772;-3.890;2023-02-15T04:35:17;6.00;99.90
25436;DHT22;13363;52.772;-3.890;2023-02-15T04:37:43;5.80;99.90
25436;DHT22;13363;52.772;-3.890;2023-02-15T04:40:12;5.80;99.90
25436;DHT22;13363;52.772;-3.890;2023-02-15T04:42:38;5.60;99.90
25436;DHT22;13363;52.772;-3.890;2023-02-15T04:45:05;5.70;99.90
25436;DHT22;13363;52.772;-3.890;2023-02-15T04:47:31;5.70;99.90
25436;DHT22;13363;52.772;-3.890;2023-02-15T04:49:56;5.60;99.90
25436;DHT22;13363;52.772;-3.890;2023-02-15T04:52:22;5.40;99.90
25436;DHT22;13363;52.772;-3.890;2023-02-15T04:54:48;5.40;99.90
25436;DHT22;13363;52.772;-3.890;2023-02-15T04:57:14;5.60;99.90
25436;DHT22;13363;52.772;-3.890;2023-02-15T04:59:40;5.50;99.90
25436;DHT22;13363;52.772;-3.890;2023-02-15T05:02:06;5.50;99.90
25436;DHT22;13363;52.772;-3.890;2023-02-15T05:04:32;5.40;99.90
25436;DHT22;13363;52.772;-3.890;2023-02-15T05:06:58;5.30;99.90
25436;DHT22;13363;52.772;-3.890;2023-02-15T05:09:24;5.30;99.90
25436;DHT22;13363;52.772;-3.890;2023-02-15T05:11:49;5.30;99.90
25436;DHT22;13363;52.772;-3.890;2023-02-15T05:14:15;5.40;99.90
25436;DHT22;13363;52.772;-3.890;2023-02-15T05:16:41;5.30;99.90
25436;DHT22;13363;52.772;-3.890;2023-02-15T05:19:07;5.20;99.90
25436;DHT22;13363;52.772;-3.890;2023-02-15T05:21:33;5.10;99.90
25436;DHT22;13363;52.772;-3.890;2023-02-15T05:23:59;5.10;99.90
25436;DHT22;13363;52.772;-3.890;2023-02-15T05:26:25;5.10;99.90
25436;DHT22;13363;52.772;-3.890;2023-02-15T05:29:10;5.00;99.90
25436;DHT22;13363;52.772;-3.890;2023-02-15T05:31:36;5.00;99.90
25436;DHT22;13363;52.772;-3.890;2023-02-15T05:34:02;5.00;99.90
25436;DHT22;13363;52.772;-3.890;2023-02-15T05:36:28;5.10;99.90
25436;DHT22;13363;52.772;-3.890;2023-02-15T05:38:55;5.40;99.90
25436;DHT22;13363;52.772;-3.890;2023-02-15T05:41:21;5.40;99.90
25436;DHT22;13363;52.772;-3.890;2023-02-15T05:43:47;5.50;99.90
25436;DHT22;13363;52.772;-3.890;2023-02-15T05:46:13;5.30;99.90
25436;DHT22;13363;52.772;-3.890;2023-02-15T05:48:39;5.20;99.90
25436;DHT22;13363;52.772;-3.890;2023-02-15T05:51:10;5.10;99.90
25436;DHT22;13363;52.772;-3.890;2023-02-15T05:53:39;5.40;99.90
25436;DHT22;13363;52.772;-3.890;2023-02-15T05:56:07;5.40;99.90
25436;DHT22;13363;52.772;-3.890;2023-02-15T05:58:39;5.30;99.90
25436;DHT22;13363;52.772;-3.890;2023-02-15T06:03:39;5.40;99.90
25436;DHT22;13363;52.772;-3.890;2023-02-15T06:06:05;5.40;99.90
25436;DHT22;13363;52.772;-3.890;2023-02-15T06:08:33;5.50;99.90
25436;DHT22;13363;52.772;-3.890;2023-02-15T06:10:59;5.50;99.90
25436;DHT22;13363;52.772;-3.890;2023-02-15T06:13:25;5.80;99.90
25436;DHT22;13363;52.772;-3.890;2023-02-15T06:15:51;6.00;99.90
25436;DHT22;13363;52.772;-3.890;2023-02-15T06:18:16;5.90;99.90
25436;DHT22;13363;52.772;-3.890;2023-02-15T06:20:44;5.70;99.90
25436;DHT22;13363;52.772;-3.890;2023-02-15T06:23:10;5.60;99.90
25436;DHT22;13363;52.772;-3.890;2023-02-15T06:25:36;5.50;99.90
25436;DHT22;13363;52.772;-3.890;2023-02-15T06:28:02;5.20;99.90
25436;DHT22;13363;52.772;-3.890;2023-02-15T06:30:28;5.10;99.90
25436;DHT22;13363;52.772;-3.890;2023-02-15T06:32:53;5.20;99.90
25436;DHT22;13363;52.772;-3.890;2023-02-15T06:35:19;5.10;99.90
25436;DHT22;13363;52.772;-3.890;2023-02-15T06:37:45;5.00;99.90
25436;DHT22;13363;52.772;-3.890;2023-02-15T06:40:12;5.00;99.90
25436;DHT22;13363;52.772;-3.890;2023-02-15T06:42:38;4.60;99.90
25436;DHT22;13363;52.772;-3.890;2023-02-15T06:45:04;5.20;99.90
25436;DHT22;13363;52.772;-3.890;2023-02-15T06:47:30;5.40;99.90
25436;DHT22;13363;52.772;-3.890;2023-02-15T06:49:56;5.20;99.90
25436;DHT22;13363;52.772;-3.890;2023-02-15T06:52:23;5.10;99.90
25436;DHT22;13363;52.772;-3.890;2023-02-15T06:54:49;5.10;99.90
25436;DHT22;13363;52.772;-3.890;2023-02-15T06:57:14;5.20;99.90
25436;DHT22;13363;52.772;-3.890;2023-02-15T06:59:40;5.40;99.90
25436;DHT22;13363;52.772;-3.890;2023-02-15T07:02:07;5.20;99.90
25436;DHT22;13363;52.772;-3.890;2023-02-15T07:04:33;5.30;99.90
25436;DHT22;13363;52.772;-3.890;2023-02-15T07:06:59;5.40;99.90
25436;DHT22;13363;52.772;-3.890;2023-02-15T07:09:26;5.40;99.90
25436;DHT22;13363;52.772;-3.890;2023-02-15T07:11:51;5.70;99.90
25436;DHT22;13363;52.772;-3.890;2023-02-15T07:14:36;5.60;99.90
25436;DHT22;13363;52.772;-3.890;2023-02-15T07:17:01;5.50;99.90
25436;DHT22;13363;52.772;-3.890;2023-02-15T07:19:27;5.50;99.90
25436;DHT22;13363;52.772;-3.890;2023-02-15T07:21:53;5.40;99.90
25436;DHT22;13363;52.772;-3.890;2023-02-15T07:24:19;5.40;99.90
25436;DHT22;13363;52.772;-3.890;2023-02-15T07:26:44;5.30;99.90
25436;DHT22;13363;52.772;-3.890;2023-02-15T07:29:10;5.40;99.90
25436;DHT22;13363;52.772;-3.890;2023-02-15T07:31:36;5.30;99.90
25436;DHT22;13363;52.772;-3.890;2023-02-15T07:34:02;5.40;99.90
25436;DHT22;13363;52.772;-3.890;2023-02-15T07:36:28;5.20;99.90
25436;DHT22;13363;52.772;-3.890;2023-02-15T07:38:53;5.50;99.90
25436;DHT22;13363;52.772;-3.890;2023-02-15T07:41:19;5.80;99.90
25436;DHT22;13363;52.772;-3.890;2023-02-15T07:43:45;5.90;99.90
25436;DHT22;13363;52.772;-3.890;2023-02-15T07:46:14;5.80;99.90
25436;DHT22;13363;52.772;-3.890;2023-02-15T07:48:40;5.90;99.90
25436;DHT22;13363;52.772;-3.890;2023-02-15T07:51:08;6.40;99.90
25436;DHT22;13363;52.772;-3.890;2023-02-15T07:53:35;6.30;99.90
25436;DHT22;13363;52.772;-3.890;2023-02-15T07:56:03;6.60;99.90
25436;DHT22;13363;52.772;-3.890;2023-02-15T07:58:29;6.50;99.90
25436;DHT22;13363;52.772;-3.890;2023-02-15T08:01:14;6.60;99.90
25436;DHT22;13363;52.772;-3.890;2023-02-15T08:03:39;6.50;99.90
25436;DHT22;13363;52.772;-3.890;2023-02-15T08:06:05;7.10;99.90
25436;DHT22;13363;52.772;-3.890;2023-02-15T08:08:33;7.40;99.90
25436;DHT22;13363;52.772;-3.890;2023-02-15T08:14:07;7.80;99.90
25436;DHT22;13363;52.772;-3.890;2023-02-15T08:16:41;7.90;99.90
25436;DHT22;13363;52.772;-3.890;2023-02-15T08:21:52;9.00;99.90
25436;DHT22;13363;52.772;-3.890;2023-02-15T08:24:20;9.20;99.90
25436;DHT22;13363;52.772;-3.890;2023-02-15T08:26:47;9.40;99.90
25436;DHT22;13363;52.772;-3.890;2023-02-15T08:29:15;9.60;99.90
25436;DHT22;13363;52.772;-3.890;2023-02-15T08:31:41;9.90;99.90
25436;DHT22;13363;52.772;-3.890;2023-02-15T08:34:09;10.10;99.90
25436;DHT22;13363;52.772;-3.890;2023-02-15T08:36:37;10.40;99.90
25436;DHT22;13363;52.772;-3.890;2023-02-15T08:39:04;11.00;99.90
25436;DHT22;13363;52.772;-3.890;2023-02-15T08:41:35;11.30;99.90
25436;DHT22;13363;52.772;-3.890;2023-02-15T08:44:04;11.40;99.90
25436;DHT22;13363;52.772;-3.890;2023-02-15T08:46:33;11.40;99.90
25436;DHT22;13363;52.772;-3.890;2023-02-15T08:48:59;11.50;99.90
25436;DHT22;13363;52.772;-3.890;2023-02-15T08:51:30;11.70;99.90
25436;DHT22;13363;52.772;-3.890;2023-02-15T08:54:00;11.70;99.90
25436;DHT22;13363;52.772;-3.890;2023-02-15T08:56:29;11.70;99.90
25436;DHT22;13363;52.772;-3.890;2023-02-15T08:58:56;11.70;99.90
25436;DHT22;13363;52.772;-3.890;2023-02-15T09:01:27;11.60;99.90
25436;DHT22;13363;52.772;-3.890;2023-02-15T09:04:03;11.70;99.90
25436;DHT22;13363;52.772;-3.890;2023-02-15T09:06:31;11.60;99.90
25436;DHT22;13363;52.772;-3.890;2023-02-15T09:08:57;11.60;99.90
25436;DHT22;13363;52.772;-3.890;2023-02-15T09:11:28;11.60;99.90
25436;DHT22;13363;52.772;-3.890;2023-02-15T09:14:02;11.70;99.90
25436;DHT22;13363;52.772;-3.890;2023-02-15T09:16:31;11.70;99.90
25436;DHT22;13363;52.772;-3.890;2023-02-15T09:18:58;11.70;99.90
25436;DHT22;13363;52.772;-3.890;2023-02-15T09:21:25;11.70;99.90
25436;DHT22;13363;52.772;-3.890;2023-02-15T09:23:55;11.70;99.90
25436;DHT22;13363;52.772;-3.890;2023-02-15T09:26:22;11.70;99.90
25436;DHT22;13363;52.772;-3.890;2023-02-15T09:28:52;12.10;99.90
25436;DHT22;13363;52.772;-3.890;2023-02-15T09:31:20;12.60;99.90
25436;DHT22;13363;52.772;-3.890;2023-02-15T09:33:48;13.00;99.90
25436;DHT22;13363;52.772;-3.890;2023-02-15T09:36:27;13.20;99.90
25436;DHT22;13363;52.772;-3.890;2023-02-15T09:41:48;13.10;99.90
25436;DHT22;13363;52.772;-3.890;2023-02-15T09:50:29;12.50;99.90
25436;DHT22;13363;52.772;-3.890;2023-02-15T09:59:11;12.30;99.90
25436;DHT22;13363;52.772;-3.890;2023-02-15T10:07:26;12.10;99.90
25436;DHT22;13363;52.772;-3.890;2023-02-15T10:15:27;11.90;99.90
25436;DHT22;13363;52.772;-3.890;2023-02-15T10:20:56;11.80;99.90
25436;DHT22;13363;52.772;-3.890;2023-02-15T10:23:45;11.70;99.90
25436;DHT22;13363;52.772;-3.890;2023-02-15T10:29:08;11.60;99.90
25436;DHT22;13363;52.772;-3.890;2023-02-15T10:31:50;11.60;99.90
25436;DHT22;13363;52.772;-3.890;2023-02-15T10:34:20;11.60;99.90
25436;DHT22;13363;52.772;-3.890;2023-02-15T10:42:39;11.50;99.90
25436;DHT22;13363;52.772;-3.890;2023-02-15T10:45:12;11.50;99.90
25436;DHT22;13363;52.772;-3.890;2023-02-15T10:50:56;11.50;99.90
25436;DHT22;13363;52.772;-3.890;2023-02-15T10:56:10;11.50;99.90
25436;DHT22;13363;52.772;-3.890;2023-02-15T11:01:43;11.50;99.90
25436;DHT22;13363;52.772;-3.890;2023-02-15T11:04:47;11.40;99.90
25436;DHT22;13363;52.772;-3.890;2023-02-15T11:09:48;11.40;99.90
25436;DHT22;13363;52.772;-3.890;2023-02-15T11:12:22;11.40;99.90
25436;DHT22;13363;52.772;-3.890;2023-02-15T11:17:45;11.40;99.90
25436;DHT22;13363;52.772;-3.890;2023-02-15T11:22:49;11.30;99.90
25436;DHT22;13363;52.772;-3.890;2023-02-15T11:25:23;11.20;99.90
25436;DHT22;13363;52.772;-3.890;2023-02-15T11:27:49;11.20;99.90
25436;DHT22;13363;52.772;-3.890;2023-02-15T11:30:27;11.20;99.90
25436;DHT22;13363;52.772;-3.890;2023-02-15T11:33:01;11.10;99.90
25436;DHT22;13363;52.772;-3.890;2023-02-15T11:35:47;11.10;99.90
25436;DHT22;13363;52.772;-3.890;2023-02-15T11:38:19;11.00;99.90
25436;DHT22;13363;52.772;-3.890;2023-02-15T11:40:55;10.90;99.90
25436;DHT22;13363;52.772;-3.890;2023-02-15T11:43:46;10.90;99.90
25436;DHT22;13363;52.772;-3.890;2023-02-15T11:46:15;10.80;99.90
25436;DHT22;13363;52.772;-3.890;2023-02-15T11:48:41;10.80;99.90
25436;DHT22;13363;52.772;-3.890;2023-02-15T11:51:17;10.80;99.90
25436;DHT22;13363;52.772;-3.890;2023-02-15T11:53:45;10.80;99.90
25436;DHT22;13363;52.772;-3.890;2023-02-15T11:56:17;10.80;99.90
25436;DHT22;13363;52.772;-3.890;2023-02-15T11:58:58;10.80;99.90
25436;DHT22;13363;52.772;-3.890;2023-02-15T12:06:34;10.70;99.90
25436;DHT22;13363;52.772;-3.890;2023-02-15T12:09:13;10.70;99.90
25436;DHT22;13363;52.772;-3.890;2023-02-15T12:11:43;10.70;99.90
25436;DHT22;13363;52.772;-3.890;2023-02-15T12:14:11;10.70;99.90
25436;DHT22;13363;52.772;-3.890;2023-02-15T12:16:50;10.70;99.90
25436;DHT22;13363;52.772;-3.890;2023-02-15T12:19:32;10.70;99.90
25436;DHT22;13363;52.772;-3.890;2023-02-15T12:22:02;10.70;99.90
25436;DHT22;13363;52.772;-3.890;2023-02-15T12:24:36;10.80;99.90
25436;DHT22;13363;52.772;-3.890;2023-02-15T12:27:14;10.80;99.90
25436;DHT22;13363;52.772;-3.890;2023-02-15T12:29:44;10.90;99.90
25436;DHT22;13363;52.772;-3.890;2023-02-15T12:32:25;11.10;99.90
25436;DHT22;13363;52.772;-3.890;2023-02-15T12:34:59;11.20;99.90
25436;DHT22;13363;52.772;-3.890;2023-02-15T12:37:28;11.20;99.90
25436;DHT22;13363;52.772;-3.890;2023-02-15T12:40:11;11.30;99.90
25436;DHT22;13363;52.772;-3.890;2023-02-15T12:42:44;11.40;99.90
25436;DHT22;13363;52.772;-3.890;2023-02-15T12:45:28;11.30;99.90
25436;DHT22;13363;52.772;-3.890;2023-02-15T12:48:16;11.50;99.90
25436;DHT22;13363;52.772;-3.890;2023-02-15T12:50:46;11.80;99.90
25436;DHT22;13363;52.772;-3.890;2023-02-15T12:53:22;11.90;99.90
25436;DHT22;13363;52.772;-3.890;2023-02-15T12:55:56;12.00;99.90
25436;DHT22;13363;52.772;-3.890;2023-02-15T12:58:24;12.00;99.90
25436;DHT22;13363;52.772;-3.890;2023-02-15T13:01:12;12.10;99.90
25436;DHT22;13363;52.772;-3.890;2023-02-15T13:03:58;12.10;99.90
25436;DHT22;13363;52.772;-3.890;2023-02-15T13:06:26;12.20;99.90
25436;DHT22;13363;52.772;-3.890;2023-02-15T13:11:32;12.30;99.90
25436;DHT22;13363;52.772;-3.890;2023-02-15T13:14:03;12.50;99.90
25436;DHT22;13363;52.772;-3.890;2023-02-15T13:16:33;12.30;99.90
25436;DHT22;13363;52.772;-3.890;2023-02-15T13:19:06;12.30;99.90
25436;DHT22;13363;52.772;-3.890;2023-02-15T13:21:36;12.40;99.90
25436;DHT22;13363;52.772;-3.890;2023-02-15T13:24:22;12.60;99.90
25436;DHT22;13363;52.772;-3.890;2023-02-15T13:26:49;12.50;99.90
25436;DHT22;13363;52.772;-3.890;2023-02-15T13:31:50;12.40;99.90
25436;DHT22;13363;52.772;-3.890;2023-02-15T13:34:25;12.50;99.90
25436;DHT22;13363;52.772;-3.890;2023-02-15T13:37:15;12.40;99.90
25436;DHT22;13363;52.772;-3.890;2023-02-15T13:39:42;12.50;99.90
25436;DHT22;13363;52.772;-3.890;2023-02-15T13:42:26;12.50;99.90
25436;DHT22;13363;52.772;-3.890;2023-02-15T13:50:45;12.00;99.90
25436;DHT22;13363;52.772;-3.890;2023-02-15T13:53:29;11.80;99.90
25436;DHT22;13363;52.772;-3.890;2023-02-15T13:56:02;11.70;99.90
25436;DHT22;13363;52.772;-3.890;2023-02-15T14:01:44;11.80;99.90
25436;DHT22;13363;52.772;-3.890;2023-02-15T14:07:41;11.80;99.90
25436;DHT22;13363;52.772;-3.890;2023-02-15T14:13:28;11.80;99.90
25436;DHT22;13363;52.772;-3.890;2023-02-15T14:22:00;11.80;99.90
25436;DHT22;13363;52.772;-3.890;2023-02-15T14:24:40;11.80;99.90
25436;DHT22;13363;52.772;-3.890;2023-02-15T14:27:27;11.80;99.90
25436;DHT22;13363;52.772;-3.890;2023-02-15T14:29:59;11.90;99.90
25436;DHT22;13363;52.772;-3.890;2023-02-15T14:32:41;11.90;99.90
25436;DHT22;13363;52.772;-3.890;2023-02-15T14:35:18;11.80;99.90
25436;DHT22;13363;52.772;-3.890;2023-02-15T14:40:57;11.80;99.90
25436;DHT22;13363;52.772;-3.890;2023-02-15T14:43:46;11.70;99.90
25436;DHT22;13363;52.772;-3.890;2023-02-15T14:46:48;11.60;99.90
25436;DHT22;13363;52.772;-3.890;2023-02-15T14:49:22;11.60;99.90
25436;DHT22;13363;52.772;-3.890;2023-02-15T15:03:08;11.70;99.90
25436;DHT22;13363;52.772;-3.890;2023-02-15T15:07:49;11.80;99.90
25436;DHT22;13363;52.772;-3.890;2023-02-15T15:10:40;11.90;99.90
25436;DHT22;13363;52.772;-3.890;2023-02-15T15:16:23;11.80;99.90
25436;DHT22;13363;52.772;-3.890;2023-02-15T15:18:49;11.90;99.90
25436;DHT22;13363;52.772;-3.890;2023-02-15T15:36:16;11.70;99.90
25436;DHT22;13363;52.772;-3.890;2023-02-15T15:46:54;11.70;99.90
25436;DHT22;13363;52.772;-3.890;2023-02-15T15:49:31;11.80;99.90
25436;DHT22;13363;52.772;-3.890;2023-02-15T15:52:07;11.80;99.90
25436;DHT22;13363;52.772;-3.890;2023-02-15T15:54:34;11.80;99.90
25436;DHT22;13363;52.772;-3.890;2023-02-15T15:57:04;11.80;99.90
25436;DHT22;13363;52.772;-3.890;2023-02-15T15:59:33;11.70;99.90
25436;DHT22;13363;52.772;-3.890;2023-02-15T16:02:07;11.60;99.90
25436;DHT22;13363;52.772;-3.890;2023-02-15T16:04:36;11.70;99.90
25436;DHT22;13363;52.772;-3.890;2023-02-15T16:10:01;11.60;99.90
25436;DHT22;13363;52.772;-3.890;2023-02-15T16:12:35;11.60;99.90
25436;DHT22;13363;52.772;-3.890;2023-02-15T16:15:15;11.60;99.90
25436;DHT22;13363;52.772;-3.890;2023-02-15T16:17:43;11.60;99.90
25436;DHT22;13363;52.772;-3.890;2023-02-15T16:20:33;11.60;99.90
25436;DHT22;13363;52.772;-3.890;2023-02-15T16:28:13;11.50;99.90
25436;DHT22;13363;52.772;-3.890;2023-02-15T16:30:40;11.50;99.90
25436;DHT22;13363;52.772;-3.890;2023-02-15T16:33:16;11.40;99.90
25436;DHT22;13363;52.772;-3.890;2023-02-15T16:35:57;11.40;99.90
25436;DHT22;13363;52.772;-3.890;2023-02-15T16:41:27;11.40;99.90
25436;DHT22;13363;52.772;-3.890;2023-02-15T16:43:55;11.30;99.90
25436;DHT22;13363;52.772;-3.890;2023-02-15T16:46:30;11.30;99.90
25436;DHT22;13363;52.772;-3.890;2023-02-15T16:49:00;11.20;99.90
25436;DHT22;13363;52.772;-3.890;2023-02-15T16:51:30;11.20;99.90
25436;DHT22;13363;52.772;-3.890;2023-02-15T16:54:03;11.20;99.90
25436;DHT22;13363;52.772;-3.890;2023-02-15T16:56:31;11.10;99.90
25436;DHT22;13363;52.772;-3.890;2023-02-15T16:58:59;11.10;99.90
25436;DHT22;13363;52.772;-3.890;2023-02-15T17:01:28;11.10;99.90
25436;DHT22;13363;52.772;-3.890;2023-02-15T17:04:25;11.00;99.90
25436;DHT22;13363;52.772;-3.890;2023-02-15T17:07:04;10.90;99.90
25436;DHT22;13363;52.772;-3.890;2023-02-15T17:09:31;10.80;99.90
25436;DHT22;13363;52.772;-3.890;2023-02-15T17:11:57;10.90;99.90
25436;DHT22;13363;52.772;-3.890;2023-02-15T17:14:31;10.80;99.90
25436;DHT22;13363;52.772;-3.890;2023-02-15T17:17:11;10.80;99.90
25436;DHT22;13363;52.772;-3.890;2023-02-15T17:19:50;10.70;99.90
25436;DHT22;13363;52.772;-3.890;2023-02-15T17:22:25;10.60;99.90
25436;DHT22;13363;52.772;-3.890;2023-02-15T17:25:01;10.70;99.90
25436;DHT22;13363;52.772;-3.890;2023-02-15T17:27:30;10.60;99.90
25436;DHT22;13363;52.772;-3.890;2023-02-15T17:30:00;10.70;99.90
25436;DHT22;13363;52.772;-3.890;2023-02-15T17:32:30;10.40;99.90
25436;DHT22;13363;52.772;-3.890;2023-02-15T17:37:43;10.80;99.90
25436;DHT22;13363;52.772;-3.890;2023-02-15T17:40:27;10.70;99.90
25436;DHT22;13363;52.772;-3.890;2023-02-15T17:42:53;10.60;99.90
25436;DHT22;13363;52.772;-3.890;2023-02-15T17:45:20;10.60;99.90
25436;DHT22;13363;52.772;-3.890;2023-02-15T17:47:48;10.60;99.90
25436;DHT22;13363;52.772;-3.890;2023-02-15T17:50:25;10.50;99.90
25436;DHT22;13363;52.772;-3.890;2023-02-15T17:52:52;10.50;99.90
25436;DHT22;13363;52.772;-3.890;2023-02-15T17:55:20;10.50;99.90
25436;DHT22;13363;52.772;-3.890;2023-02-15T17:58:12;10.40;99.90
25436;DHT22;13363;52.772;-3.890;2023-02-15T18:00:41;10.40;99.90
25436;DHT22;13363;52.772;-3.890;2023-02-15T18:03:48;10.40;99.90
25436;DHT22;13363;52.772;-3.890;2023-02-15T18:06:38;10.30;99.90
25436;DHT22;13363;52.772;-3.890;2023-02-15T18:09:24;10.30;99.90
25436;DHT22;13363;52.772;-3.890;2023-02-15T18:14:43;10.30;99.90
25436;DHT22;13363;52.772;-3.890;2023-02-15T18:17:11;10.20;99.90
25436;DHT22;13363;52.772;-3.890;2023-02-15T18:19:38;10.20;99.90
25436;DHT22;13363;52.772;-3.890;2023-02-15T18:22:13;10.20;99.90
25436;DHT22;13363;52.772;-3.890;2023-02-15T18:24:40;10.30;99.90
25436;DHT22;13363;52.772;-3.890;2023-02-15T18:27:06;10.20;99.90
25436;DHT22;13363;52.772;-3.890;2023-02-15T18:29:32;10.30;99.90
25436;DHT22;13363;52.772;-3.890;2023-02-15T18:31:59;10.00;99.90
25436;DHT22;13363;52.772;-3.890;2023-02-15T18:34:35;10.10;99.90
25436;DHT22;13363;52.772;-3.890;2023-02-15T18:37:03;10.10;99.90
25436;DHT22;13363;52.772;-3.890;2023-02-15T18:42:06;10.20;99.90
25436;DHT22;13363;52.772;-3.890;2023-02-15T18:44:32;10.10;99.90
25436;DHT22;13363;52.772;-3.890;2023-02-15T18:46:58;10.10;99.90
25436;DHT22;13363;52.772;-3.890;2023-02-15T18:49:24;10.20;99.90
25436;DHT22;13363;52.772;-3.890;2023-02-15T18:51:50;10.00;99.90
25436;DHT22;13363;52.772;-3.890;2023-02-15T18:54:21;9.90;99.90
25436;DHT22;13363;52.772;-3.890;2023-02-15T18:56:55;10.00;99.90